sensor_id;sensor_type;location;lat;lon;timestamp;P1;durP1;ratioP1;P2;durP2;ratioP2
66893;SDS011;53801;55.786;49.142;2023-07-09T00:00:19;8.60;;;5.75;;
66893;SDS011;53801;55.786;49.142;2023-07-09T00:02:48;8.98;;;5.70;;
66893;SDS011;53801;55.786;49.142;2023-07-09T00:05:45;8.50;;;5.57;;
66893;SDS011;53801;55.786;49.142;2023-07-09T00:08:36;7.28;;;5.65;;
66893;SDS011;53801;55.786;49.142;2023-07-09T00:16:23;10.73;;;5.80;;
66893;SDS011;53801;55.786;49.142;2023-07-09T00:24:14;9.50;;;6.30;;
66893;SDS011;53801;55.786;49.142;2023-07-09T00:26:46;9.10;;;6.50;;
66893;SDS011;53801;55.786;49.142;2023-07-09T00:29:38;9.82;;;7.15;;
66893;SDS011;53801;55.786;49.142;2023-07-09T00:32:10;9.77;;;6.10;;
66893;SDS011;53801;55.786;49.142;2023-07-09T00:35:02;7.63;;;5.70;;
66893;SDS011;53801;55.786;49.142;2023-07-09T00:41:04;7.60;;;5.77;;
66893;SDS011;53801;55.786;49.142;2023-07-09T00:43:17;8.68;;;5.60;;
66893;SDS011;53801;55.786;49.142;2023-07-09T00:48:36;6.63;;;5.28;;
66893;SDS011;53801;55.786;49.142;2023-07-09T00:53:38;9.30;;;5.43;;
66893;SDS011;53801;55.786;49.142;2023-07-09T00:59:40;7.82;;;5.28;;
66893;SDS011;53801;55.786;49.142;2023-07-09T01:02:11;7.65;;;5.43;;
66893;SDS011;53801;55.786;49.142;2023-07-09T01:04:37;7.35;;;5.32;;
66893;SDS011;53801;55.786;49.142;2023-07-09T01:07:05;7.17;;;5.43;;
66893;SDS011;53801;55.786;49.142;2023-07-09T01:09:33;6.85;;;5.10;;
66893;SDS011;53801;55.786;49.142;2023-07-09T01:12:21;8.82;;;5.65;;
66893;SDS011;53801;55.786;49.142;2023-07-09T01:15:17;8.73;;;5.45;;
66893;SDS011;53801;55.786;49.142;2023-07-09T01:20:39;7.47;;;5.60;;
66893;SDS011;53801;55.786;49.142;2023-07-09T01:29:43;8.07;;;5.55;;
66893;SDS011;53801;55.786;49.142;2023-07-09T01:34:51;8.87;;;5.70;;
66893;SDS011;53801;55.786;49.142;2023-07-09T01:37:18;10.73;;;5.90;;
66893;SDS011;53801;55.786;49.142;2023-07-09T01:42:41;8.33;;;5.80;;
66893;SDS011;53801;55.786;49.142;2023-07-09T01:45:17;8.40;;;6.03;;
66893;SDS011;53801;55.786;49.142;2023-07-09T01:47:50;7.87;;;5.57;;
66893;SDS011;53801;55.786;49.142;2023-07-09T01:50:21;8.45;;;5.70;;
66893;SDS011;53801;55.786;49.142;2023-07-09T01:52:54;9.88;;;5.63;;
66893;SDS011;53801;55.786;49.142;2023-07-09T01:55:30;9.27;;;6.00;;
66893;SDS011;53801;55.786;49.142;2023-07-09T01:58:40;8.67;;;5.80;;
66893;SDS011;53801;55.786;49.142;2023-07-09T02:01:27;9.52;;;6.30;;
66893;SDS011;53801;55.786;49.142;2023-07-09T02:03:53;11.68;;;6.05;;
66893;SDS011;53801;55.786;49.142;2023-07-09T02:06:24;9.55;;;6.30;;
66893;SDS011;53801;55.786;49.142;2023-07-09T02:08:50;9.43;;;5.72;;
66893;SDS011;53801;55.786;49.142;2023-07-09T02:11:15;8.13;;;5.87;;
66893;SDS011;53801;55.786;49.142;2023-07-09T02:13:46;9.98;;;6.10;;
66893;SDS011;53801;55.786;49.142;2023-07-09T02:16:12;16.10;;;6.57;;
66893;SDS011;53801;55.786;49.142;2023-07-09T02:18:37;8.68;;;5.65;;
66893;SDS011;53801;55.786;49.142;2023-07-09T02:21:03;16.15;;;6.28;;
66893;SDS011;53801;55.786;49.142;2023-07-09T02:23:34;12.30;;;6.57;;
66893;SDS011;53801;55.786;49.142;2023-07-09T02:26:00;8.93;;;6.00;;
66893;SDS011;53801;55.786;49.142;2023-07-09T02:28:30;9.90;;;6.65;;
66893;SDS011;53801;55.786;49.142;2023-07-09T02:30:56;12.30;;;6.73;;
66893;SDS011;53801;55.786;49.142;2023-07-09T02:33:29;14.18;;;6.80;;
66893;SDS011;53801;55.786;49.142;2023-07-09T02:36:32;9.75;;;6.70;;
66893;SDS011;53801;55.786;49.142;2023-07-09T02:39:21;13.55;;;7.30;;
66893;SDS011;53801;55.786;49.142;2023-07-09T02:41:54;9.40;;;7.13;;
66893;SDS011;53801;55.786;49.142;2023-07-09T02:44:23;11.70;;;7.25;;
66893;SDS011;53801;55.786;49.142;2023-07-09T02:46:51;13.65;;;7.28;;
66893;SDS011;53801;55.786;49.142;2023-07-09T02:49:19;13.52;;;7.22;;
66893;SDS011;53801;55.786;49.142;2023-07-09T02:51:46;11.85;;;7.78;;
66893;SDS011;53801;55.786;49.142;2023-07-09T02:54:16;12.43;;;8.18;;
66893;SDS011;53801;55.786;49.142;2023-07-09T02:56:46;10.77;;;9.00;;
66893;SDS011;53801;55.786;49.142;2023-07-09T02:59:12;14.38;;;8.95;;
66893;SDS011;53801;55.786;49.142;2023-07-09T03:01:38;11.07;;;8.47;;
66893;SDS011;53801;55.786;49.142;2023-07-09T03:04:04;16.13;;;8.45;;
66893;SDS011;53801;55.786;49.142;2023-07-09T03:06:30;10.85;;;8.15;;
66893;SDS011;53801;55.786;49.142;2023-07-09T03:08:58;13.23;;;8.75;;
66893;SDS011;53801;55.786;49.142;2023-07-09T03:11:24;11.32;;;8.57;;
66893;SDS011;53801;55.786;49.142;2023-07-09T03:13:49;11.33;;;8.30;;
66893;SDS011;53801;55.786;49.142;2023-07-09T03:16:15;14.65;;;9.20;;
66893;SDS011;53801;55.786;49.142;2023-07-09T03:18:41;11.50;;;9.13;;
66893;SDS011;53801;55.786;49.142;2023-07-09T03:21:08;13.98;;;8.77;;
66893;SDS011;53801;55.786;49.142;2023-07-09T03:23:34;10.70;;;8.87;;
66893;SDS011;53801;55.786;49.142;2023-07-09T03:26:12;14.20;;;9.63;;
66893;SDS011;53801;55.786;49.142;2023-07-09T03:28:38;14.90;;;9.68;;
66893;SDS011;53801;55.786;49.142;2023-07-09T03:33:36;15.73;;;10.00;;
66893;SDS011;53801;55.786;49.142;2023-07-09T03:36:04;17.10;;;9.85;;
66893;SDS011;53801;55.786;49.142;2023-07-09T03:38:35;12.27;;;10.07;;
66893;SDS011;53801;55.786;49.142;2023-07-09T03:41:03;14.07;;;10.40;;
66893;SDS011;53801;55.786;49.142;2023-07-09T03:43:33;11.05;;;9.88;;
66893;SDS011;53801;55.786;49.142;2023-07-09T03:45:59;14.20;;;9.77;;
66893;SDS011;53801;55.786;49.142;2023-07-09T03:48:24;15.82;;;9.85;;
66893;SDS011;53801;55.786;49.142;2023-07-09T03:50:50;15.60;;;10.07;;
66893;SDS011;53801;55.786;49.142;2023-07-09T03:53:16;13.37;;;10.00;;
66893;SDS011;53801;55.786;49.142;2023-07-09T03:55:42;10.48;;;9.20;;
66893;SDS011;53801;55.786;49.142;2023-07-09T03:58:08;10.95;;;8.63;;
66893;SDS011;53801;55.786;49.142;2023-07-09T04:00:38;14.40;;;9.57;;
66893;SDS011;53801;55.786;49.142;2023-07-09T04:03:14;14.77;;;10.07;;
66893;SDS011;53801;55.786;49.142;2023-07-09T04:05:40;17.77;;;11.18;;
66893;SDS011;53801;55.786;49.142;2023-07-09T04:10:41;14.60;;;10.20;;
66893;SDS011;53801;55.786;49.142;2023-07-09T04:13:06;16.73;;;10.90;;
66893;SDS011;53801;55.786;49.142;2023-07-09T04:15:32;16.25;;;10.50;;
66893;SDS011;53801;55.786;49.142;2023-07-09T04:18:00;17.30;;;10.70;;
66893;SDS011;53801;55.786;49.142;2023-07-09T04:20:26;17.27;;;10.43;;
66893;SDS011;53801;55.786;49.142;2023-07-09T04:22:54;18.73;;;11.65;;
66893;SDS011;53801;55.786;49.142;2023-07-09T04:25:21;16.65;;;9.90;;
66893;SDS011;53801;55.786;49.142;2023-07-09T04:27:47;14.03;;;9.43;;
66893;SDS011;53801;55.786;49.142;2023-07-09T04:30:15;11.33;;;8.50;;
66893;SDS011;53801;55.786;49.142;2023-07-09T04:32:44;11.80;;;8.70;;
66893;SDS011;53801;55.786;49.142;2023-07-09T04:35:13;11.40;;;8.57;;
66893;SDS011;53801;55.786;49.142;2023-07-09T04:37:44;12.98;;;8.75;;
66893;SDS011;53801;55.786;49.142;2023-07-09T04:40:22;11.05;;;8.45;;
66893;SDS011;53801;55.786;49.142;2023-07-09T04:42:48;13.50;;;8.03;;
66893;SDS011;53801;55.786;49.142;2023-07-09T04:48:14;15.27;;;8.52;;
66893;SDS011;53801;55.786;49.142;2023-07-09T04:50:44;14.15;;;7.57;;
66893;SDS011;53801;55.786;49.142;2023-07-09T04:53:15;9.27;;;7.70;;
66893;SDS011;53801;55.786;49.142;2023-07-09T04:55:44;10.17;;;6.83;;
66893;SDS011;53801;55.786;49.142;2023-07-09T04:58:09;9.60;;;6.68;;
66893;SDS011;53801;55.786;49.142;2023-07-09T05:00:35;12.27;;;6.83;;
66893;SDS011;53801;55.786;49.142;2023-07-09T05:03:01;10.18;;;7.47;;
66893;SDS011;53801;55.786;49.142;2023-07-09T05:05:30;8.20;;;6.97;;
66893;SDS011;53801;55.786;49.142;2023-07-09T05:07:55;10.47;;;7.03;;
66893;SDS011;53801;55.786;49.142;2023-07-09T05:10:51;10.68;;;6.78;;
66893;SDS011;53801;55.786;49.142;2023-07-09T05:13:18;9.65;;;6.57;;
66893;SDS011;53801;55.786;49.142;2023-07-09T05:15:54;8.27;;;6.73;;
66893;SDS011;53801;55.786;49.142;2023-07-09T05:18:22;10.80;;;7.35;;
66893;SDS011;53801;55.786;49.142;2023-07-09T05:20:47;8.23;;;7.32;;
66893;SDS011;53801;55.786;49.142;2023-07-09T05:23:21;10.47;;;7.10;;
66893;SDS011;53801;55.786;49.142;2023-07-09T05:25:46;13.45;;;7.15;;
66893;SDS011;53801;55.786;49.142;2023-07-09T05:31:04;10.45;;;7.35;;
66893;SDS011;53801;55.786;49.142;2023-07-09T05:33:29;8.57;;;7.43;;
66893;SDS011;53801;55.786;49.142;2023-07-09T05:35:55;10.15;;;7.53;;
66893;SDS011;53801;55.786;49.142;2023-07-09T05:38:21;14.67;;;8.30;;
66893;SDS011;53801;55.786;49.142;2023-07-09T05:43:22;8.40;;;7.47;;
66893;SDS011;53801;55.786;49.142;2023-07-09T05:45:47;10.20;;;8.02;;
66893;SDS011;53801;55.786;49.142;2023-07-09T05:48:13;9.17;;;7.90;;
66893;SDS011;53801;55.786;49.142;2023-07-09T05:50:38;10.77;;;7.73;;
66893;SDS011;53801;55.786;49.142;2023-07-09T05:53:03;9.57;;;7.88;;
66893;SDS011;53801;55.786;49.142;2023-07-09T05:55:33;10.02;;;8.35;;
66893;SDS011;53801;55.786;49.142;2023-07-09T05:57:59;9.20;;;7.93;;
66893;SDS011;53801;55.786;49.142;2023-07-09T06:00:24;12.75;;;9.45;;
66893;SDS011;53801;55.786;49.142;2023-07-09T06:05:21;10.05;;;9.05;;
66893;SDS011;53801;55.786;49.142;2023-07-09T06:07:47;12.57;;;8.73;;
66893;SDS011;53801;55.786;49.142;2023-07-09T06:10:13;9.55;;;8.00;;
66893;SDS011;53801;55.786;49.142;2023-07-09T06:12:59;11.30;;;8.02;;
66893;SDS011;53801;55.786;49.142;2023-07-09T06:15:53;8.90;;;8.10;;
66893;SDS011;53801;55.786;49.142;2023-07-09T06:18:41;11.27;;;7.80;;
66893;SDS011;53801;55.786;49.142;2023-07-09T06:21:27;10.70;;;9.02;;
66893;SDS011;53801;55.786;49.142;2023-07-09T06:29:33;11.10;;;8.45;;
66893;SDS011;53801;55.786;49.142;2023-07-09T06:32:02;9.17;;;8.23;;
66893;SDS011;53801;55.786;49.142;2023-07-09T06:34:33;9.95;;;8.95;;
66893;SDS011;53801;55.786;49.142;2023-07-09T06:37:02;13.15;;;8.23;;
66893;SDS011;53801;55.786;49.142;2023-07-09T06:39:27;8.83;;;7.93;;
66893;SDS011;53801;55.786;49.142;2023-07-09T06:42:23;9.20;;;8.30;;
66893;SDS011;53801;55.786;49.142;2023-07-09T06:44:51;9.77;;;8.88;;
66893;SDS011;53801;55.786;49.142;2023-07-09T06:50:05;10.52;;;9.50;;
66893;SDS011;53801;55.786;49.142;2023-07-09T06:55:03;10.57;;;9.45;;
66893;SDS011;53801;55.786;49.142;2023-07-09T06:57:32;13.20;;;6.10;;
66893;SDS011;53801;55.786;49.142;2023-07-09T07:00:00;7.22;;;6.38;;
66893;SDS011;53801;55.786;49.142;2023-07-09T07:02:26;7.30;;;6.60;;
66893;SDS011;53801;55.786;49.142;2023-07-09T07:04:52;7.70;;;6.55;;
66893;SDS011;53801;55.786;49.142;2023-07-09T07:07:17;7.20;;;6.50;;
66893;SDS011;53801;55.786;49.142;2023-07-09T07:12:43;6.82;;;6.13;;
66893;SDS011;53801;55.786;49.142;2023-07-09T07:15:12;9.13;;;6.72;;
66893;SDS011;53801;55.786;49.142;2023-07-09T07:20:28;9.77;;;6.97;;
66893;SDS011;53801;55.786;49.142;2023-07-09T07:22:56;7.95;;;7.13;;
66893;SDS011;53801;55.786;49.142;2023-07-09T07:25:25;7.80;;;6.60;;
66893;SDS011;53801;55.786;49.142;2023-07-09T07:27:51;7.88;;;6.55;;
66893;SDS011;53801;55.786;49.142;2023-07-09T07:30:17;9.23;;;6.45;;
66893;SDS011;53801;55.786;49.142;2023-07-09T07:32:46;8.23;;;6.23;;
66893;SDS011;53801;55.786;49.142;2023-07-09T07:35:19;10.68;;;6.18;;
66893;SDS011;53801;55.786;49.142;2023-07-09T07:38:03;8.63;;;6.50;;
66893;SDS011;53801;55.786;49.142;2023-07-09T07:43:28;7.45;;;6.70;;
66893;SDS011;53801;55.786;49.142;2023-07-09T07:45:53;7.57;;;6.40;;
66893;SDS011;53801;55.786;49.142;2023-07-09T07:54:25;9.32;;;7.57;;
66893;SDS011;53801;55.786;49.142;2023-07-09T07:56:50;8.00;;;7.20;;
66893;SDS011;53801;55.786;49.142;2023-07-09T07:59:47;8.95;;;6.72;;
66893;SDS011;53801;55.786;49.142;2023-07-09T08:02:23;8.35;;;7.55;;
66893;SDS011;53801;55.786;49.142;2023-07-09T08:04:51;10.35;;;8.63;;
66893;SDS011;53801;55.786;49.142;2023-07-09T08:10:41;8.13;;;7.30;;
66893;SDS011;53801;55.786;49.142;2023-07-09T08:13:06;7.38;;;6.65;;
66893;SDS011;53801;55.786;49.142;2023-07-09T08:15:32;8.47;;;7.77;;
66893;SDS011;53801;55.786;49.142;2023-07-09T08:17:58;8.88;;;8.05;;
66893;SDS011;53801;55.786;49.142;2023-07-09T08:20:23;10.07;;;9.10;;
66893;SDS011;53801;55.786;49.142;2023-07-09T08:22:49;10.37;;;9.13;;
66893;SDS011;53801;55.786;49.142;2023-07-09T08:25:33;9.05;;;8.23;;
66893;SDS011;53801;55.786;49.142;2023-07-09T08:28:00;8.68;;;6.93;;
66893;SDS011;53801;55.786;49.142;2023-07-09T08:30:26;11.07;;;6.00;;
66893;SDS011;53801;55.786;49.142;2023-07-09T08:32:52;8.20;;;7.20;;
66893;SDS011;53801;55.786;49.142;2023-07-09T08:35:20;7.13;;;6.43;;
66893;SDS011;53801;55.786;49.142;2023-07-09T08:37:45;7.03;;;6.38;;
66893;SDS011;53801;55.786;49.142;2023-07-09T08:40:14;11.37;;;5.90;;
66893;SDS011;53801;55.786;49.142;2023-07-09T08:42:42;10.13;;;6.20;;
66893;SDS011;53801;55.786;49.142;2023-07-09T08:48:15;7.40;;;6.35;;
66893;SDS011;53801;55.786;49.142;2023-07-09T08:50:54;8.52;;;6.57;;
66893;SDS011;53801;55.786;49.142;2023-07-09T08:53:21;6.32;;;5.72;;
66893;SDS011;53801;55.786;49.142;2023-07-09T08:55:57;6.72;;;6.07;;
66893;SDS011;53801;55.786;49.142;2023-07-09T08:58:33;6.50;;;5.90;;
66893;SDS011;53801;55.786;49.142;2023-07-09T09:01:00;6.72;;;6.03;;
66893;SDS011;53801;55.786;49.142;2023-07-09T09:03:29;11.32;;;6.43;;
66893;SDS011;53801;55.786;49.142;2023-07-09T09:05:56;7.22;;;5.90;;
66893;SDS011;53801;55.786;49.142;2023-07-09T09:08:30;10.53;;;6.30;;
66893;SDS011;53801;55.786;49.142;2023-07-09T09:13:47;8.05;;;7.25;;
66893;SDS011;53801;55.786;49.142;2023-07-09T09:19:13;10.03;;;6.83;;
66893;SDS011;53801;55.786;49.142;2023-07-09T09:21:46;7.72;;;6.90;;
66893;SDS011;53801;55.786;49.142;2023-07-09T09:27:25;8.35;;;6.53;;
66893;SDS011;53801;55.786;49.142;2023-07-09T09:32:59;8.30;;;7.50;;
66893;SDS011;53801;55.786;49.142;2023-07-09T09:35:28;8.93;;;6.82;;
66893;SDS011;53801;55.786;49.142;2023-07-09T09:38:16;8.20;;;7.35;;
66893;SDS011;53801;55.786;49.142;2023-07-09T09:40:44;10.90;;;7.35;;
66893;SDS011;53801;55.786;49.142;2023-07-09T09:43:19;8.47;;;6.93;;
66893;SDS011;53801;55.786;49.142;2023-07-09T09:49:02;9.57;;;7.50;;
66893;SDS011;53801;55.786;49.142;2023-07-09T09:51:33;7.97;;;7.28;;
66893;SDS011;53801;55.786;49.142;2023-07-09T09:54:00;9.30;;;6.80;;
66893;SDS011;53801;55.786;49.142;2023-07-09T09:58:52;8.55;;;7.68;;
66893;SDS011;53801;55.786;49.142;2023-07-09T10:01:21;10.68;;;7.45;;
66893;SDS011;53801;55.786;49.142;2023-07-09T10:03:49;9.95;;;6.70;;
66893;SDS011;53801;55.786;49.142;2023-07-09T10:06:17;9.65;;;7.75;;
66893;SDS011;53801;55.786;49.142;2023-07-09T10:11:45;10.85;;;7.97;;
66893;SDS011;53801;55.786;49.142;2023-07-09T10:14:35;14.52;;;7.75;;
66893;SDS011;53801;55.786;49.142;2023-07-09T10:16:59;11.77;;;7.85;;
66893;SDS011;53801;55.786;49.142;2023-07-09T10:19:31;8.20;;;7.22;;
66893;SDS011;53801;55.786;49.142;2023-07-09T10:24:27;10.17;;;6.80;;
66893;SDS011;53801;55.786;49.142;2023-07-09T10:27:03;11.15;;;7.43;;
66893;SDS011;53801;55.786;49.142;2023-07-09T10:34:49;8.07;;;6.95;;
66893;SDS011;53801;55.786;49.142;2023-07-09T10:39:51;7.27;;;6.57;;
66893;SDS011;53801;55.786;49.142;2023-07-09T10:42:24;9.13;;;6.80;;
66893;SDS011;53801;55.786;49.142;2023-07-09T10:45:03;8.65;;;7.10;;
66893;SDS011;53801;55.786;49.142;2023-07-09T10:47:34;10.70;;;7.72;;
66893;SDS011;53801;55.786;49.142;2023-07-09T10:50:02;7.97;;;6.93;;
66893;SDS011;53801;55.786;49.142;2023-07-09T10:52:31;10.97;;;6.87;;
66893;SDS011;53801;55.786;49.142;2023-07-09T10:54:59;9.80;;;6.80;;
66893;SDS011;53801;55.786;49.142;2023-07-09T11:00:03;11.18;;;6.65;;
66893;SDS011;53801;55.786;49.142;2023-07-09T11:02:32;9.98;;;6.82;;
66893;SDS011;53801;55.786;49.142;2023-07-09T11:04:59;8.67;;;6.57;;
66893;SDS011;53801;55.786;49.142;2023-07-09T11:07:42;7.38;;;6.43;;
66893;SDS011;53801;55.786;49.142;2023-07-09T11:21:31;12.38;;;7.55;;
66893;SDS011;53801;55.786;49.142;2023-07-09T11:23:57;8.15;;;7.25;;
66893;SDS011;53801;55.786;49.142;2023-07-09T11:26:28;8.57;;;6.40;;
66893;SDS011;53801;55.786;49.142;2023-07-09T11:29:15;7.65;;;6.85;;
66893;SDS011;53801;55.786;49.142;2023-07-09T11:34:10;8.48;;;6.90;;
66893;SDS011;53801;55.786;49.142;2023-07-09T11:41:53;10.57;;;6.82;;
66893;SDS011;53801;55.786;49.142;2023-07-09T11:46:51;9.57;;;7.13;;
66893;SDS011;53801;55.786;49.142;2023-07-09T11:49:17;7.93;;;6.55;;
66893;SDS011;53801;55.786;49.142;2023-07-09T11:51:45;9.15;;;6.65;;
66893;SDS011;53801;55.786;49.142;2023-07-09T11:54:12;7.57;;;6.50;;
66893;SDS011;53801;55.786;49.142;2023-07-09T11:56:38;11.00;;;7.53;;
66893;SDS011;53801;55.786;49.142;2023-07-09T11:59:04;10.17;;;6.50;;
66893;SDS011;53801;55.786;49.142;2023-07-09T12:01:51;8.27;;;6.70;;
66893;SDS011;53801;55.786;49.142;2023-07-09T12:04:18;12.88;;;6.70;;
66893;SDS011;53801;55.786;49.142;2023-07-09T12:06:44;9.52;;;6.43;;
66893;SDS011;53801;55.786;49.142;2023-07-09T12:09:17;10.82;;;6.68;;
66893;SDS011;53801;55.786;49.142;2023-07-09T12:14:19;9.93;;;6.68;;
66893;SDS011;53801;55.786;49.142;2023-07-09T12:16:49;10.55;;;6.70;;
66893;SDS011;53801;55.786;49.142;2023-07-09T12:19:16;11.55;;;7.10;;
66893;SDS011;53801;55.786;49.142;2023-07-09T12:21:43;11.73;;;6.90;;
66893;SDS011;53801;55.786;49.142;2023-07-09T12:24:21;8.70;;;6.70;;
66893;SDS011;53801;55.786;49.142;2023-07-09T12:26:48;8.02;;;6.75;;
66893;SDS011;53801;55.786;49.142;2023-07-09T12:29:14;7.93;;;6.18;;
66893;SDS011;53801;55.786;49.142;2023-07-09T12:31:40;10.03;;;6.73;;
66893;SDS011;53801;55.786;49.142;2023-07-09T12:34:10;8.57;;;6.70;;
66893;SDS011;53801;55.786;49.142;2023-07-09T12:36:38;7.97;;;6.55;;
66893;SDS011;53801;55.786;49.142;2023-07-09T12:42:17;7.93;;;6.38;;
66893;SDS011;53801;55.786;49.142;2023-07-09T12:44:43;9.60;;;6.68;;
66893;SDS011;53801;55.786;49.142;2023-07-09T12:47:12;8.50;;;7.10;;
66893;SDS011;53801;55.786;49.142;2023-07-09T12:49:43;13.07;;;6.82;;
66893;SDS011;53801;55.786;49.142;2023-07-09T12:54:52;10.85;;;6.90;;
66893;SDS011;53801;55.786;49.142;2023-07-09T12:57:17;13.63;;;7.53;;
66893;SDS011;53801;55.786;49.142;2023-07-09T12:59:45;9.07;;;7.73;;
66893;SDS011;53801;55.786;49.142;2023-07-09T13:02:16;9.38;;;7.03;;
66893;SDS011;53801;55.786;49.142;2023-07-09T13:07:49;9.67;;;6.57;;
66893;SDS011;53801;55.786;49.142;2023-07-09T13:10:16;11.15;;;7.05;;
66893;SDS011;53801;55.786;49.142;2023-07-09T13:17:50;13.90;;;8.43;;
66893;SDS011;53801;55.786;49.142;2023-07-09T13:21:13;9.93;;;7.13;;
66893;SDS011;53801;55.786;49.142;2023-07-09T13:23:40;17.00;;;7.55;;
66893;SDS011;53801;55.786;49.142;2023-07-09T13:26:08;11.32;;;6.93;;
66893;SDS011;53801;55.786;49.142;2023-07-09T13:28:33;11.23;;;6.72;;
66893;SDS011;53801;55.786;49.142;2023-07-09T13:33:34;8.48;;;6.82;;
66893;SDS011;53801;55.786;49.142;2023-07-09T13:35:59;11.70;;;6.77;;
66893;SDS011;53801;55.786;49.142;2023-07-09T13:38:27;11.48;;;6.60;;
66893;SDS011;53801;55.786;49.142;2023-07-09T13:40:54;10.80;;;6.60;;
66893;SDS011;53801;55.786;49.142;2023-07-09T13:45:56;10.10;;;6.75;;
66893;SDS011;53801;55.786;49.142;2023-07-09T13:48:22;10.43;;;6.85;;
66893;SDS011;53801;55.786;49.142;2023-07-09T13:50:49;8.82;;;6.50;;
66893;SDS011;53801;55.786;49.142;2023-07-09T13:53:16;10.27;;;6.88;;
66893;SDS011;53801;55.786;49.142;2023-07-09T13:55:42;12.10;;;7.47;;
66893;SDS011;53801;55.786;49.142;2023-07-09T14:01:01;13.23;;;7.60;;
66893;SDS011;53801;55.786;49.142;2023-07-09T14:03:32;9.20;;;7.60;;
66893;SDS011;53801;55.786;49.142;2023-07-09T14:05:59;13.15;;;8.65;;
66893;SDS011;53801;55.786;49.142;2023-07-09T14:08:25;10.18;;;8.15;;
66893;SDS011;53801;55.786;49.142;2023-07-09T14:10:50;11.90;;;8.07;;
66893;SDS011;53801;55.786;49.142;2023-07-09T14:13:23;14.05;;;8.10;;
66893;SDS011;53801;55.786;49.142;2023-07-09T14:15:58;10.85;;;8.40;;
66893;SDS011;53801;55.786;49.142;2023-07-09T14:18:23;13.50;;;7.95;;
66893;SDS011;53801;55.786;49.142;2023-07-09T14:23:24;17.08;;;8.35;;
66893;SDS011;53801;55.786;49.142;2023-07-09T14:25:50;14.40;;;7.80;;
66893;SDS011;53801;55.786;49.142;2023-07-09T14:28:17;16.20;;;7.63;;
66893;SDS011;53801;55.786;49.142;2023-07-09T14:30:43;13.97;;;7.67;;
66893;SDS011;53801;55.786;49.142;2023-07-09T14:33:15;17.92;;;9.30;;
66893;SDS011;53801;55.786;49.142;2023-07-09T14:35:41;11.10;;;8.38;;
66893;SDS011;53801;55.786;49.142;2023-07-09T14:38:23;13.93;;;8.63;;
66893;SDS011;53801;55.786;49.142;2023-07-09T14:40:51;15.77;;;8.77;;
66893;SDS011;53801;55.786;49.142;2023-07-09T14:43:17;14.63;;;8.40;;
66893;SDS011;53801;55.786;49.142;2023-07-09T14:45:43;16.87;;;8.53;;
66893;SDS011;53801;55.786;49.142;2023-07-09T14:48:09;17.10;;;8.95;;
66893;SDS011;53801;55.786;49.142;2023-07-09T14:50:36;14.05;;;8.63;;
66893;SDS011;53801;55.786;49.142;2023-07-09T14:53:04;11.85;;;8.48;;
66893;SDS011;53801;55.786;49.142;2023-07-09T14:55:33;17.23;;;8.48;;
66893;SDS011;53801;55.786;49.142;2023-07-09T14:57:58;12.35;;;8.13;;
66893;SDS011;53801;55.786;49.142;2023-07-09T15:00:26;11.53;;;7.90;;
66893;SDS011;53801;55.786;49.142;2023-07-09T15:02:52;11.45;;;7.55;;
66893;SDS011;53801;55.786;49.142;2023-07-09T15:05:19;13.88;;;7.28;;
66893;SDS011;53801;55.786;49.142;2023-07-09T15:07:47;14.13;;;7.38;;
66893;SDS011;53801;55.786;49.142;2023-07-09T15:10:16;12.45;;;7.28;;
66893;SDS011;53801;55.786;49.142;2023-07-09T15:12:42;11.32;;;7.15;;
66893;SDS011;53801;55.786;49.142;2023-07-09T15:15:21;15.52;;;7.28;;
66893;SDS011;53801;55.786;49.142;2023-07-09T15:17:47;11.45;;;7.18;;
66893;SDS011;53801;55.786;49.142;2023-07-09T15:20:17;13.55;;;6.93;;
66893;SDS011;53801;55.786;49.142;2023-07-09T15:22:50;11.93;;;6.90;;
66893;SDS011;53801;55.786;49.142;2023-07-09T15:25:20;11.43;;;7.30;;
66893;SDS011;53801;55.786;49.142;2023-07-09T15:27:49;10.80;;;7.45;;
66893;SDS011;53801;55.786;49.142;2023-07-09T15:30:16;13.13;;;7.15;;
66893;SDS011;53801;55.786;49.142;2023-07-09T15:32:42;11.35;;;6.88;;
66893;SDS011;53801;55.786;49.142;2023-07-09T15:35:08;12.13;;;6.50;;
66893;SDS011;53801;55.786;49.142;2023-07-09T15:37:33;12.80;;;6.97;;
66893;SDS011;53801;55.786;49.142;2023-07-09T15:39:59;13.50;;;7.10;;
66893;SDS011;53801;55.786;49.142;2023-07-09T15:42:24;16.87;;;6.50;;
66893;SDS011;53801;55.786;49.142;2023-07-09T15:44:50;11.55;;;6.43;;
66893;SDS011;53801;55.786;49.142;2023-07-09T15:47:19;10.40;;;6.60;;
66893;SDS011;53801;55.786;49.142;2023-07-09T15:49:45;10.98;;;6.32;;
66893;SDS011;53801;55.786;49.142;2023-07-09T15:52:10;10.43;;;5.97;;
66893;SDS011;53801;55.786;49.142;2023-07-09T15:54:36;10.50;;;6.07;;
66893;SDS011;53801;55.786;49.142;2023-07-09T15:57:01;11.98;;;6.68;;
66893;SDS011;53801;55.786;49.142;2023-07-09T15:59:30;14.00;;;6.53;;
66893;SDS011;53801;55.786;49.142;2023-07-09T16:01:56;12.63;;;6.55;;
66893;SDS011;53801;55.786;49.142;2023-07-09T16:04:22;13.68;;;6.72;;
66893;SDS011;53801;55.786;49.142;2023-07-09T16:06:48;13.45;;;5.90;;
66893;SDS011;53801;55.786;49.142;2023-07-09T16:09:21;11.77;;;5.93;;
66893;SDS011;53801;55.786;49.142;2023-07-09T16:12:04;12.00;;;5.82;;
66893;SDS011;53801;55.786;49.142;2023-07-09T16:14:30;11.80;;;6.13;;
66893;SDS011;53801;55.786;49.142;2023-07-09T16:17:04;12.35;;;5.85;;
66893;SDS011;53801;55.786;49.142;2023-07-09T16:19:30;9.65;;;5.95;;
66893;SDS011;53801;55.786;49.142;2023-07-09T16:24:44;12.57;;;5.90;;
66893;SDS011;53801;55.786;49.142;2023-07-09T16:27:09;10.57;;;6.00;;
66893;SDS011;53801;55.786;49.142;2023-07-09T16:35:19;11.32;;;5.90;;
66893;SDS011;53801;55.786;49.142;2023-07-09T16:37:55;10.50;;;5.80;;
66893;SDS011;53801;55.786;49.142;2023-07-09T16:40:31;8.60;;;5.63;;
66893;SDS011;53801;55.786;49.142;2023-07-09T16:43:00;14.07;;;6.05;;
66893;SDS011;53801;55.786;49.142;2023-07-09T16:45:28;9.27;;;5.00;;
66893;SDS011;53801;55.786;49.142;2023-07-09T16:47:54;9.13;;;5.65;;
66893;SDS011;53801;55.786;49.142;2023-07-09T16:50:20;9.97;;;5.80;;
66893;SDS011;53801;55.786;49.142;2023-07-09T16:52:55;11.45;;;5.50;;
66893;SDS011;53801;55.786;49.142;2023-07-09T16:55:26;8.45;;;5.53;;
66893;SDS011;53801;55.786;49.142;2023-07-09T17:00:41;10.40;;;5.60;;
66893;SDS011;53801;55.786;49.142;2023-07-09T17:03:08;10.52;;;5.63;;
66893;SDS011;53801;55.786;49.142;2023-07-09T17:05:36;9.40;;;5.80;;
66893;SDS011;53801;55.786;49.142;2023-07-09T17:08:02;8.45;;;5.80;;
66893;SDS011;53801;55.786;49.142;2023-07-09T17:12:55;15.07;;;9.02;;
66893;SDS011;53801;55.786;49.142;2023-07-09T17:15:23;11.30;;;7.50;;
66893;SDS011;53801;55.786;49.142;2023-07-09T17:17:49;9.80;;;6.53;;
66893;SDS011;53801;55.786;49.142;2023-07-09T17:20:15;10.27;;;6.38;;
66893;SDS011;53801;55.786;49.142;2023-07-09T17:22:41;8.68;;;6.25;;
66893;SDS011;53801;55.786;49.142;2023-07-09T17:25:21;10.95;;;6.63;;
66893;SDS011;53801;55.786;49.142;2023-07-09T17:27:47;11.87;;;6.67;;
66893;SDS011;53801;55.786;49.142;2023-07-09T17:30:13;10.75;;;6.28;;
66893;SDS011;53801;55.786;49.142;2023-07-09T17:32:39;10.65;;;6.28;;
66893;SDS011;53801;55.786;49.142;2023-07-09T17:35:06;10.38;;;6.03;;
66893;SDS011;53801;55.786;49.142;2023-07-09T17:37:31;11.57;;;6.68;;
66893;SDS011;53801;55.786;49.142;2023-07-09T17:39:59;8.90;;;6.18;;
66893;SDS011;53801;55.786;49.142;2023-07-09T17:42:25;9.77;;;6.40;;